Firm Cases, Texas
Current Conditions -  °F | °C
As of 10:58 AM on Friday 24 Oct 2014 (Local Time) from KSKF Reporting Station
Clear Clear  
Wind Chill: 76°   Ceiling: Unl
Heat Index: 76°   Visibility: 10mi
Dew Point: 60°   Wind: 1mph
Humidity: 57%   Direction: NA
Pressure: 30.18"   Gusts: NA
Location:  29.4209°N, 98.5275°W
Report Text: KSKF 241558Z AUTO VRB01KT 10SM CLR 24/16 A3018 RMK AO2 SLP215 T02440155 $
Loading
Personal Weather Stations






























Interactive Weather Map
Tropical Storm Tracking
New forecast layout! Learn more

10-Day Weather Forecast

Advertisements
Track Severe Weather on mobile